sensor_id;sensor_type;location;lat;lon;timestamp;P1;durP1;ratioP1;P2;durP2;ratioP2
44446;SDS011;30152;52.066;5.358;2022-09-13T07:21:11;43.53;;;25.90;;
44446;SDS011;30152;52.066;5.358;2022-09-13T07:23:38;37.90;;;23.35;;
44446;SDS011;30152;52.066;5.358;2022-09-13T07:26:04;40.38;;;24.02;;
44446;SDS011;30152;52.066;5.358;2022-09-13T07:28:32;36.30;;;23.73;;
44446;SDS011;30152;52.066;5.358;2022-09-13T07:33:30;37.58;;;22.48;;
44446;SDS011;30152;52.066;5.358;2022-09-13T07:35:57;32.85;;;21.88;;
44446;SDS011;30152;52.066;5.358;2022-09-13T07:38:25;40.63;;;23.52;;
44446;SDS011;30152;52.066;5.358;2022-09-13T07:40:55;35.60;;;23.92;;
44446;SDS011;30152;52.066;5.358;2022-09-13T07:43:23;35.28;;;22.52;;
44446;SDS011;30152;52.066;5.358;2022-09-13T07:45:59;35.10;;;23.58;;
44446;SDS011;30152;52.066;5.358;2022-09-13T07:48:26;34.88;;;21.80;;
44446;SDS011;30152;52.066;5.358;2022-09-13T07:50:58;34.35;;;22.23;;
44446;SDS011;30152;52.066;5.358;2022-09-13T07:53:24;35.45;;;22.48;;
44446;SDS011;30152;52.066;5.358;2022-09-13T07:55:51;30.15;;;19.33;;
44446;SDS011;30152;52.066;5.358;2022-09-13T07:58:17;26.58;;;16.85;;
44446;SDS011;30152;52.066;5.358;2022-09-13T08:00:43;28.55;;;17.00;;
44446;SDS011;30152;52.066;5.358;2022-09-13T08:03:10;26.85;;;15.00;;
44446;SDS011;30152;52.066;5.358;2022-09-13T08:05:39;25.17;;;13.90;;
44446;SDS011;30152;52.066;5.358;2022-09-13T08:08:05;22.50;;;12.80;;
44446;SDS011;30152;52.066;5.358;2022-09-13T08:10:32;17.95;;;11.43;;
44446;SDS011;30152;52.066;5.358;2022-09-13T08:12:59;15.45;;;10.20;;
44446;SDS011;30152;52.066;5.358;2022-09-13T08:15:25;20.23;;;9.48;;
44446;SDS011;30152;52.066;5.358;2022-09-13T08:17:52;14.98;;;8.40;;
44446;SDS011;30152;52.066;5.358;2022-09-13T08:20:20;13.60;;;7.20;;
44446;SDS011;30152;52.066;5.358;2022-09-13T08:22:47;12.02;;;6.78;;
44446;SDS011;30152;52.066;5.358;2022-09-13T08:25:13;10.60;;;7.00;;
44446;SDS011;30152;52.066;5.358;2022-09-13T08:27:39;11.60;;;6.68;;
44446;SDS011;30152;52.066;5.358;2022-09-13T08:30:05;12.48;;;6.10;;
44446;SDS011;30152;52.066;5.358;2022-09-13T08:32:31;12.93;;;5.63;;
44446;SDS011;30152;52.066;5.358;2022-09-13T08:34:57;11.85;;;6.30;;
44446;SDS011;30152;52.066;5.358;2022-09-13T08:37:23;10.70;;;6.22;;
44446;SDS011;30152;52.066;5.358;2022-09-13T08:39:48;9.15;;;5.10;;
44446;SDS011;30152;52.066;5.358;2022-09-13T08:44:47;9.57;;;5.53;;
44446;SDS011;30152;52.066;5.358;2022-09-13T08:49:44;7.47;;;4.03;;
44446;SDS011;30152;52.066;5.358;2022-09-13T08:54:40;10.15;;;4.05;;
44446;SDS011;30152;52.066;5.358;2022-09-13T08:57:08;8.50;;;4.20;;
44446;SDS011;30152;52.066;5.358;2022-09-13T09:02:16;7.80;;;4.10;;
44446;SDS011;30152;52.066;5.358;2022-09-13T09:07:30;9.85;;;3.75;;
44446;SDS011;30152;52.066;5.358;2022-09-13T09:09:59;7.22;;;3.22;;
44446;SDS011;30152;52.066;5.358;2022-09-13T09:12:31;6.35;;;3.10;;
44446;SDS011;30152;52.066;5.358;2022-09-13T09:15:02;12.60;;;3.55;;
44446;SDS011;30152;52.066;5.358;2022-09-13T09:17:44;5.95;;;2.55;;
44446;SDS011;30152;52.066;5.358;2022-09-13T09:22:48;10.85;;;2.45;;
44446;SDS011;30152;52.066;5.358;2022-09-13T09:25:15;6.07;;;1.98;;
44446;SDS011;30152;52.066;5.358;2022-09-13T09:27:41;5.03;;;1.83;;
44446;SDS011;30152;52.066;5.358;2022-09-13T09:30:11;4.43;;;1.77;;
44446;SDS011;30152;52.066;5.358;2022-09-13T09:35:40;5.72;;;2.13;;
44446;SDS011;30152;52.066;5.358;2022-09-13T09:40:55;6.03;;;1.58;;
44446;SDS011;30152;52.066;5.358;2022-09-13T09:43:25;7.05;;;1.92;;
44446;SDS011;30152;52.066;5.358;2022-09-13T09:45:53;5.22;;;1.50;;
44446;SDS011;30152;52.066;5.358;2022-09-13T09:48:21;4.03;;;1.58;;
44446;SDS011;30152;52.066;5.358;2022-09-13T09:50:49;6.15;;;1.88;;
44446;SDS011;30152;52.066;5.358;2022-09-13T09:53:21;6.03;;;1.30;;
44446;SDS011;30152;52.066;5.358;2022-09-13T09:58:43;4.15;;;1.20;;
44446;SDS011;30152;52.066;5.358;2022-09-13T10:01:13;7.97;;;2.08;;
44446;SDS011;30152;52.066;5.358;2022-09-13T10:03:41;6.85;;;1.52;;
44446;SDS011;30152;52.066;5.358;2022-09-13T10:06:08;5.30;;;1.23;;
44446;SDS011;30152;52.066;5.358;2022-09-13T10:08:36;4.18;;;1.10;;
44446;SDS011;30152;52.066;5.358;2022-09-13T10:11:03;4.60;;;1.35;;
44446;SDS011;30152;52.066;5.358;2022-09-13T10:13:31;5.20;;;1.33;;
44446;SDS011;30152;52.066;5.358;2022-09-13T10:15:59;7.05;;;1.30;;
44446;SDS011;30152;52.066;5.358;2022-09-13T10:18:28;5.03;;;1.10;;
44446;SDS011;30152;52.066;5.358;2022-09-13T10:21:37;4.65;;;1.20;;
44446;SDS011;30152;52.066;5.358;2022-09-13T10:23:47;4.28;;;1.20;;
44446;SDS011;30152;52.066;5.358;2022-09-13T10:26:20;4.78;;;0.85;;
44446;SDS011;30152;52.066;5.358;2022-09-13T10:29:04;4.35;;;1.00;;
44446;SDS011;30152;52.066;5.358;2022-09-13T10:34:04;6.22;;;1.98;;
44446;SDS011;30152;52.066;5.358;2022-09-13T10:36:33;4.70;;;1.00;;
44446;SDS011;30152;52.066;5.358;2022-09-13T10:39:00;3.10;;;0.77;;
44446;SDS011;30152;52.066;5.358;2022-09-13T10:41:28;3.63;;;0.90;;
44446;SDS011;30152;52.066;5.358;2022-09-13T10:44:02;4.47;;;1.00;;
44446;SDS011;30152;52.066;5.358;2022-09-13T10:48:55;3.58;;;0.90;;
44446;SDS011;30152;52.066;5.358;2022-09-13T10:56:39;3.08;;;0.80;;
44446;SDS011;30152;52.066;5.358;2022-09-13T11:01:55;7.60;;;1.02;;
44446;SDS011;30152;52.066;5.358;2022-09-13T11:07:15;5.43;;;1.70;;
44446;SDS011;30152;52.066;5.358;2022-09-13T11:09:46;5.38;;;1.45;;
44446;SDS011;30152;52.066;5.358;2022-09-13T11:12:17;5.03;;;1.42;;
44446;SDS011;30152;52.066;5.358;2022-09-13T11:17:33;6.70;;;1.90;;
44446;SDS011;30152;52.066;5.358;2022-09-13T11:20:11;7.57;;;1.80;;
44446;SDS011;30152;52.066;5.358;2022-09-13T11:25:41;5.97;;;1.75;;
44446;SDS011;30152;52.066;5.358;2022-09-13T11:30:48;7.38;;;1.50;;
44446;SDS011;30152;52.066;5.358;2022-09-13T11:56:04;7.20;;;1.63;;
44446;SDS011;30152;52.066;5.358;2022-09-13T11:58:36;7.25;;;1.30;;
44446;SDS011;30152;52.066;5.358;2022-09-13T12:01:05;5.63;;;1.30;;
44446;SDS011;30152;52.066;5.358;2022-09-13T12:06:00;6.43;;;1.05;;
44446;SDS011;30152;52.066;5.358;2022-09-13T12:10:57;4.45;;;1.75;;
44446;SDS011;30152;52.066;5.358;2022-09-13T12:13:31;5.43;;;1.30;;
44446;SDS011;30152;52.066;5.358;2022-09-13T12:16:01;5.13;;;1.10;;
44446;SDS011;30152;52.066;5.358;2022-09-13T12:18:31;6.50;;;1.33;;
44446;SDS011;30152;52.066;5.358;2022-09-13T12:21:06;7.65;;;1.45;;
44446;SDS011;30152;52.066;5.358;2022-09-13T12:23:46;6.28;;;1.10;;
44446;SDS011;30152;52.066;5.358;2022-09-13T12:28:48;3.75;;;0.73;;
44446;SDS011;30152;52.066;5.358;2022-09-13T12:31:22;9.35;;;1.45;;
44446;SDS011;30152;52.066;5.358;2022-09-13T12:33:51;4.93;;;1.33;;
44446;SDS011;30152;52.066;5.358;2022-09-13T12:39:21;6.88;;;1.40;;
44446;SDS011;30152;52.066;5.358;2022-09-13T12:50:10;5.15;;;1.08;;
44446;SDS011;30152;52.066;5.358;2022-09-13T12:52:54;6.13;;;1.20;;
44446;SDS011;30152;52.066;5.358;2022-09-13T12:57:53;5.72;;;1.20;;
44446;SDS011;30152;52.066;5.358;2022-09-13T13:03:15;5.53;;;1.02;;
44446;SDS011;30152;52.066;5.358;2022-09-13T13:10:44;4.45;;;1.00;;
44446;SDS011;30152;52.066;5.358;2022-09-13T13:13:21;5.93;;;1.02;;
44446;SDS011;30152;52.066;5.358;2022-09-13T13:18:25;4.95;;;1.30;;
44446;SDS011;30152;52.066;5.358;2022-09-13T13:33:47;8.18;;;1.42;;
44446;SDS011;30152;52.066;5.358;2022-09-13T13:36:21;13.48;;;1.40;;
44446;SDS011;30152;52.066;5.358;2022-09-13T13:38:48;6.75;;;1.13;;
44446;SDS011;30152;52.066;5.358;2022-09-13T13:46:48;5.03;;;1.27;;
44446;SDS011;30152;52.066;5.358;2022-09-13T14:00:05;6.50;;;1.10;;
44446;SDS011;30152;52.066;5.358;2022-09-13T14:02:44;6.28;;;1.33;;
44446;SDS011;30152;52.066;5.358;2022-09-13T14:05:25;4.72;;;1.05;;
44446;SDS011;30152;52.066;5.358;2022-09-13T14:07:57;9.90;;;1.13;;
44446;SDS011;30152;52.066;5.358;2022-09-13T14:20:55;8.30;;;1.00;;
44446;SDS011;30152;52.066;5.358;2022-09-13T14:23:22;6.53;;;1.10;;
44446;SDS011;30152;52.066;5.358;2022-09-13T14:25:52;4.28;;;0.77;;
44446;SDS011;30152;52.066;5.358;2022-09-13T14:28:19;5.43;;;1.30;;
44446;SDS011;30152;52.066;5.358;2022-09-13T14:30:46;3.47;;;0.60;;
44446;SDS011;30152;52.066;5.358;2022-09-13T14:36:13;6.53;;;0.82;;
44446;SDS011;30152;52.066;5.358;2022-09-13T14:38:45;8.57;;;1.10;;
44446;SDS011;30152;52.066;5.358;2022-09-13T14:41:13;7.20;;;1.13;;
44446;SDS011;30152;52.066;5.358;2022-09-13T14:43:39;6.78;;;0.82;;
44446;SDS011;30152;52.066;5.358;2022-09-13T14:46:25;4.30;;;0.90;;
44446;SDS011;30152;52.066;5.358;2022-09-13T14:48:59;6.95;;;0.85;;
44446;SDS011;30152;52.066;5.358;2022-09-13T14:51:28;9.98;;;1.35;;
44446;SDS011;30152;52.066;5.358;2022-09-13T14:54:02;5.65;;;1.10;;
44446;SDS011;30152;52.066;5.358;2022-09-13T14:56:39;6.03;;;0.90;;
44446;SDS011;30152;52.066;5.358;2022-09-13T14:59:10;4.55;;;0.80;;
44446;SDS011;30152;52.066;5.358;2022-09-13T15:01:38;6.50;;;1.00;;
44446;SDS011;30152;52.066;5.358;2022-09-13T15:04:04;5.13;;;0.75;;
44446;SDS011;30152;52.066;5.358;2022-09-13T15:06:32;5.10;;;0.60;;
44446;SDS011;30152;52.066;5.358;2022-09-13T15:09:12;3.83;;;1.08;;
44446;SDS011;30152;52.066;5.358;2022-09-13T15:11:54;6.53;;;0.70;;
44446;SDS011;30152;52.066;5.358;2022-09-13T15:14:38;8.13;;;1.10;;
44446;SDS011;30152;52.066;5.358;2022-09-13T15:17:09;6.43;;;0.90;;
44446;SDS011;30152;52.066;5.358;2022-09-13T15:19:37;4.78;;;0.47;;
44446;SDS011;30152;52.066;5.358;2022-09-13T15:22:14;7.18;;;1.55;;
44446;SDS011;30152;52.066;5.358;2022-09-13T15:24:44;3.42;;;0.57;;
44446;SDS011;30152;52.066;5.358;2022-09-13T15:27:16;6.25;;;0.88;;
44446;SDS011;30152;52.066;5.358;2022-09-13T15:29:47;8.40;;;0.65;;
44446;SDS011;30152;52.066;5.358;2022-09-13T15:32:21;5.55;;;1.25;;
44446;SDS011;30152;52.066;5.358;2022-09-13T15:34:54;5.22;;;0.80;;
44446;SDS011;30152;52.066;5.358;2022-09-13T15:37:27;5.00;;;0.68;;
44446;SDS011;30152;52.066;5.358;2022-09-13T15:40:07;5.72;;;0.80;;
44446;SDS011;30152;52.066;5.358;2022-09-13T15:42:45;9.35;;;0.90;;
44446;SDS011;30152;52.066;5.358;2022-09-13T15:45:15;6.90;;;1.42;;
44446;SDS011;30152;52.066;5.358;2022-09-13T15:47:47;5.45;;;0.77;;
44446;SDS011;30152;52.066;5.358;2022-09-13T15:50:32;7.20;;;0.70;;
44446;SDS011;30152;52.066;5.358;2022-09-13T15:52:58;5.20;;;0.77;;
44446;SDS011;30152;52.066;5.358;2022-09-13T15:55:25;6.88;;;0.77;;
44446;SDS011;30152;52.066;5.358;2022-09-13T15:57:52;5.25;;;0.57;;
44446;SDS011;30152;52.066;5.358;2022-09-13T16:00:22;8.15;;;0.80;;
44446;SDS011;30152;52.066;5.358;2022-09-13T16:02:49;5.90;;;0.82;;
44446;SDS011;30152;52.066;5.358;2022-09-13T16:05:15;6.85;;;0.77;;
44446;SDS011;30152;52.066;5.358;2022-09-13T16:07:41;8.50;;;1.13;;
44446;SDS011;30152;52.066;5.358;2022-09-13T16:10:11;6.85;;;0.70;;
44446;SDS011;30152;52.066;5.358;2022-09-13T16:12:43;6.97;;;1.00;;
44446;SDS011;30152;52.066;5.358;2022-09-13T16:15:10;10.73;;;1.00;;
44446;SDS011;30152;52.066;5.358;2022-09-13T16:17:36;6.47;;;0.80;;
44446;SDS011;30152;52.066;5.358;2022-09-13T16:20:02;7.60;;;1.50;;
44446;SDS011;30152;52.066;5.358;2022-09-13T16:22:31;7.90;;;1.40;;
44446;SDS011;30152;52.066;5.358;2022-09-13T16:24:56;8.32;;;0.88;;
44446;SDS011;30152;52.066;5.358;2022-09-13T16:27:22;5.78;;;0.88;;
44446;SDS011;30152;52.066;5.358;2022-09-13T16:29:50;5.30;;;0.60;;
44446;SDS011;30152;52.066;5.358;2022-09-13T16:32:16;7.00;;;1.08;;
44446;SDS011;30152;52.066;5.358;2022-09-13T16:34:42;6.43;;;0.77;;
44446;SDS011;30152;52.066;5.358;2022-09-13T16:37:09;5.30;;;1.10;;
44446;SDS011;30152;52.066;5.358;2022-09-13T16:39:40;7.28;;;0.82;;
44446;SDS011;30152;52.066;5.358;2022-09-13T16:42:06;6.90;;;0.80;;
44446;SDS011;30152;52.066;5.358;2022-09-13T16:44:31;8.40;;;0.75;;
44446;SDS011;30152;52.066;5.358;2022-09-13T16:46:57;6.53;;;1.00;;
44446;SDS011;30152;52.066;5.358;2022-09-13T16:49:24;4.47;;;0.88;;
44446;SDS011;30152;52.066;5.358;2022-09-13T16:51:49;9.02;;;0.82;;
44446;SDS011;30152;52.066;5.358;2022-09-13T16:54:15;6.00;;;0.70;;
44446;SDS011;30152;52.066;5.358;2022-09-13T16:56:41;4.80;;;0.88;;
44446;SDS011;30152;52.066;5.358;2022-09-13T16:59:07;5.40;;;0.60;;
44446;SDS011;30152;52.066;5.358;2022-09-13T17:01:33;6.88;;;0.75;;
44446;SDS011;30152;52.066;5.358;2022-09-13T17:03:59;5.10;;;0.80;;
44446;SDS011;30152;52.066;5.358;2022-09-13T17:06:26;7.93;;;0.82;;
44446;SDS011;30152;52.066;5.358;2022-09-13T17:08:53;8.10;;;1.33;;
44446;SDS011;30152;52.066;5.358;2022-09-13T17:11:20;8.18;;;0.90;;
44446;SDS011;30152;52.066;5.358;2022-09-13T17:13:46;4.72;;;0.75;;
44446;SDS011;30152;52.066;5.358;2022-09-13T17:16:20;6.85;;;1.20;;
44446;SDS011;30152;52.066;5.358;2022-09-13T17:18:48;4.82;;;0.88;;
44446;SDS011;30152;52.066;5.358;2022-09-13T17:21:14;4.05;;;1.00;;
44446;SDS011;30152;52.066;5.358;2022-09-13T17:23:40;3.78;;;0.70;;
44446;SDS011;30152;52.066;5.358;2022-09-13T17:26:06;7.97;;;0.77;;
44446;SDS011;30152;52.066;5.358;2022-09-13T17:28:31;5.78;;;1.02;;
44446;SDS011;30152;52.066;5.358;2022-09-13T17:31:00;5.82;;;0.90;;
44446;SDS011;30152;52.066;5.358;2022-09-13T17:33:26;7.10;;;0.90;;
44446;SDS011;30152;52.066;5.358;2022-09-13T17:36:04;13.32;;;1.65;;
44446;SDS011;30152;52.066;5.358;2022-09-13T17:38:33;13.23;;;1.05;;
44446;SDS011;30152;52.066;5.358;2022-09-13T17:40:59;5.70;;;0.90;;
44446;SDS011;30152;52.066;5.358;2022-09-13T17:43:26;9.05;;;0.95;;
44446;SDS011;30152;52.066;5.358;2022-09-13T17:45:52;5.15;;;0.88;;
44446;SDS011;30152;52.066;5.358;2022-09-13T17:48:18;9.07;;;1.05;;
44446;SDS011;30152;52.066;5.358;2022-09-13T17:50:45;6.35;;;1.08;;
44446;SDS011;30152;52.066;5.358;2022-09-13T17:53:12;6.40;;;1.38;;
44446;SDS011;30152;52.066;5.358;2022-09-13T17:55:47;5.90;;;0.73;;
44446;SDS011;30152;52.066;5.358;2022-09-13T17:58:14;8.15;;;1.00;;
44446;SDS011;30152;52.066;5.358;2022-09-13T18:00:40;4.13;;;0.88;;
44446;SDS011;30152;52.066;5.358;2022-09-13T18:03:08;6.15;;;0.93;;
44446;SDS011;30152;52.066;5.358;2022-09-13T18:05:34;8.35;;;0.90;;
44446;SDS011;30152;52.066;5.358;2022-09-13T18:08:00;7.90;;;1.58;;
44446;SDS011;30152;52.066;5.358;2022-09-13T18:10:26;5.05;;;1.23;;
44446;SDS011;30152;52.066;5.358;2022-09-13T18:12:52;5.28;;;0.75;;
44446;SDS011;30152;52.066;5.358;2022-09-13T18:15:18;5.93;;;0.82;;
44446;SDS011;30152;52.066;5.358;2022-09-13T18:17:45;5.07;;;0.80;;
44446;SDS011;30152;52.066;5.358;2022-09-13T18:20:11;6.20;;;0.82;;
44446;SDS011;30152;52.066;5.358;2022-09-13T18:22:37;4.18;;;0.90;;
44446;SDS011;30152;52.066;5.358;2022-09-13T18:25:03;5.47;;;0.80;;
44446;SDS011;30152;52.066;5.358;2022-09-13T18:27:29;5.45;;;1.10;;
44446;SDS011;30152;52.066;5.358;2022-09-13T18:29:56;5.68;;;0.88;;
44446;SDS011;30152;52.066;5.358;2022-09-13T18:32:22;8.98;;;1.17;;
44446;SDS011;30152;52.066;5.358;2022-09-13T18:34:48;8.57;;;1.13;;
44446;SDS011;30152;52.066;5.358;2022-09-13T18:37:14;6.63;;;0.93;;
44446;SDS011;30152;52.066;5.358;2022-09-13T18:39:40;8.73;;;1.02;;
44446;SDS011;30152;52.066;5.358;2022-09-13T18:42:07;9.95;;;1.20;;
44446;SDS011;30152;52.066;5.358;2022-09-13T18:44:33;6.47;;;0.82;;
44446;SDS011;30152;52.066;5.358;2022-09-13T18:46:59;11.20;;;1.33;;
44446;SDS011;30152;52.066;5.358;2022-09-13T18:49:27;9.18;;;1.02;;
44446;SDS011;30152;52.066;5.358;2022-09-13T18:51:53;7.53;;;0.90;;
44446;SDS011;30152;52.066;5.358;2022-09-13T18:54:19;10.23;;;1.75;;
44446;SDS011;30152;52.066;5.358;2022-09-13T18:56:45;8.10;;;1.17;;
44446;SDS011;30152;52.066;5.358;2022-09-13T18:59:11;6.68;;;0.95;;
44446;SDS011;30152;52.066;5.358;2022-09-13T19:01:41;8.82;;;1.20;;
44446;SDS011;30152;52.066;5.358;2022-09-13T19:04:11;9.30;;;1.30;;
44446;SDS011;30152;52.066;5.358;2022-09-13T19:06:39;7.43;;;1.30;;
44446;SDS011;30152;52.066;5.358;2022-09-13T19:09:06;7.97;;;1.33;;
44446;SDS011;30152;52.066;5.358;2022-09-13T19:11:37;9.60;;;1.40;;
44446;SDS011;30152;52.066;5.358;2022-09-13T19:14:04;12.35;;;1.35;;
44446;SDS011;30152;52.066;5.358;2022-09-13T19:16:31;8.63;;;1.27;;
44446;SDS011;30152;52.066;5.358;2022-09-13T19:18:56;8.43;;;1.38;;
44446;SDS011;30152;52.066;5.358;2022-09-13T19:21:24;9.65;;;1.35;;
44446;SDS011;30152;52.066;5.358;2022-09-13T19:23:50;10.63;;;1.40;;
44446;SDS011;30152;52.066;5.358;2022-09-13T19:26:18;15.20;;;1.70;;
44446;SDS011;30152;52.066;5.358;2022-09-13T19:28:49;7.18;;;1.77;;
44446;SDS011;30152;52.066;5.358;2022-09-13T19:31:20;11.80;;;1.77;;
44446;SDS011;30152;52.066;5.358;2022-09-13T19:33:46;14.52;;;1.45;;
44446;SDS011;30152;52.066;5.358;2022-09-13T19:36:13;9.95;;;1.30;;
44446;SDS011;30152;52.066;5.358;2022-09-13T19:38:40;11.35;;;0.95;;
44446;SDS011;30152;52.066;5.358;2022-09-13T19:41:09;7.43;;;1.83;;
44446;SDS011;30152;52.066;5.358;2022-09-13T19:43:36;7.15;;;1.45;;
44446;SDS011;30152;52.066;5.358;2022-09-13T19:46:12;10.15;;;1.42;;
44446;SDS011;30152;52.066;5.358;2022-09-13T19:48:39;7.90;;;1.25;;
44446;SDS011;30152;52.066;5.358;2022-09-13T19:51:06;11.95;;;1.98;;
44446;SDS011;30152;52.066;5.358;2022-09-13T19:53:32;7.20;;;1.42;;
44446;SDS011;30152;52.066;5.358;2022-09-13T19:55:58;9.55;;;1.23;;
44446;SDS011;30152;52.066;5.358;2022-09-13T19:58:25;8.82;;;1.30;;
44446;SDS011;30152;52.066;5.358;2022-09-13T20:00:59;6.60;;;1.42;;
44446;SDS011;30152;52.066;5.358;2022-09-13T20:03:26;12.45;;;1.40;;
44446;SDS011;30152;52.066;5.358;2022-09-13T20:05:52;7.43;;;1.13;;
44446;SDS011;30152;52.066;5.358;2022-09-13T20:08:22;10.55;;;1.45;;
44446;SDS011;30152;52.066;5.358;2022-09-13T20:10:49;12.10;;;1.35;;
44446;SDS011;30152;52.066;5.358;2022-09-13T20:13:15;9.70;;;1.40;;
44446;SDS011;30152;52.066;5.358;2022-09-13T20:15:42;8.18;;;1.20;;
44446;SDS011;30152;52.066;5.358;2022-09-13T20:18:09;10.25;;;1.30;;
44446;SDS011;30152;52.066;5.358;2022-09-13T20:20:39;6.07;;;1.27;;
44446;SDS011;30152;52.066;5.358;2022-09-13T20:23:07;10.13;;;1.90;;
44446;SDS011;30152;52.066;5.358;2022-09-13T20:25:33;10.32;;;1.40;;
44446;SDS011;30152;52.066;5.358;2022-09-13T20:28:01;6.03;;;1.25;;
44446;SDS011;30152;52.066;5.358;2022-09-13T20:30:27;9.13;;;1.42;;
44446;SDS011;30152;52.066;5.358;2022-09-13T20:32:53;9.32;;;1.40;;
44446;SDS011;30152;52.066;5.358;2022-09-13T20:35:19;9.20;;;1.63;;
44446;SDS011;30152;52.066;5.358;2022-09-13T20:37:49;9.43;;;2.03;;
44446;SDS011;30152;52.066;5.358;2022-09-13T20:40:16;7.22;;;1.65;;
44446;SDS011;30152;52.066;5.358;2022-09-13T20:42:42;7.78;;;1.42;;
44446;SDS011;30152;52.066;5.358;2022-09-13T20:45:09;6.18;;;1.30;;
44446;SDS011;30152;52.066;5.358;2022-09-13T20:47:36;12.57;;;1.88;;
44446;SDS011;30152;52.066;5.358;2022-09-13T20:50:03;6.57;;;1.30;;
44446;SDS011;30152;52.066;5.358;2022-09-13T20:52:30;11.55;;;1.20;;
44446;SDS011;30152;52.066;5.358;2022-09-13T20:54:56;8.88;;;1.20;;
44446;SDS011;30152;52.066;5.358;2022-09-13T20:57:24;7.85;;;1.20;;
44446;SDS011;30152;52.066;5.358;2022-09-13T20:59:51;6.80;;;1.20;;
44446;SDS011;30152;52.066;5.358;2022-09-13T21:02:17;10.55;;;2.03;;
44446;SDS011;30152;52.066;5.358;2022-09-13T21:04:43;9.55;;;1.05;;
44446;SDS011;30152;52.066;5.358;2022-09-13T21:07:10;7.18;;;1.33;;
44446;SDS011;30152;52.066;5.358;2022-09-13T21:09:54;6.95;;;1.13;;
44446;SDS011;30152;52.066;5.358;2022-09-13T21:12:25;8.20;;;1.58;;
44446;SDS011;30152;52.066;5.358;2022-09-13T21:14:51;11.38;;;1.67;;
44446;SDS011;30152;52.066;5.358;2022-09-13T21:17:19;8.77;;;1.40;;
44446;SDS011;30152;52.066;5.358;2022-09-13T21:19:48;14.38;;;2.20;;
44446;SDS011;30152;52.066;5.358;2022-09-13T21:22:14;9.30;;;1.65;;
44446;SDS011;30152;52.066;5.358;2022-09-13T21:24:42;10.70;;;1.50;;
